Time;durP1;ratioP1;P1;durP2;ratioP2;P2;SDS_P1;SDS_P2;PMS_P1;PMS_P2;Temp;Humidity;BMP_temperature;BMP_pressure;BME280_temperature;BME280_humidity;BME280_pressure;Samples;Min_cycle;Max_cycle;Signal;HPM_P1;HPM_P2
2022/12/20 00:02:08;;;;;;;0.10;0.10;;;;;;;;;;5073308;28;20617;-73
2022/12/20 00:04:35;;;;;;;0.10;0.10;;;;;;;;;;5054327;28;20628;-73
2022/12/20 00:07:03;;;;;;;0.10;0.10;;;;;;;;;;5066687;28;20663;-73
2022/12/20 00:09:31;;;;;;;0.00;0.00;;;;;;;;;;5060385;28;20628;-73
2022/12/20 00:11:59;;;;;;;0.10;0.10;;;;;;;;;;5067574;28;20629;-74
2022/12/20 00:14:26;;;;;;;0.10;0.10;;;;;;;;;;5056537;28;20625;-74
2022/12/20 00:16:53;;;;;;;0.00;0.00;;;;;;;;;;5049236;28;20658;-73
2022/12/20 00:19:21;;;;;;;0.10;0.10;;;;;;;;;;5057666;28;20632;-73
2022/12/20 00:21:48;;;;;;;0.10;0.10;;;;;;;;;;5056863;28;20632;-74
2022/12/20 00:24:15;;;;;;;0.10;0.10;;;;;;;;;;5069894;28;20703;-74
2022/12/20 00:26:44;;;;;;;0.10;0.10;;;;;;;;;;5053748;28;20676;-73
2022/12/20 00:29:12;;;;;;;0.00;0.00;;;;;;;;;;5058057;28;20637;-73
2022/12/20 00:31:39;;;;;;;0.10;0.10;;;;;;;;;;5051922;28;20634;-73
2022/12/20 00:34:10;;;;;;;0.10;0.10;;;;;;;;;;5057552;28;20631;-74
2022/12/20 00:36:40;;;;;;;0.10;0.10;;;;;;;;;;5072474;28;20660;-73
2022/12/20 00:39:08;;;;;;;0.10;0.10;;;;;;;;;;5074667;28;20623;-74
2022/12/20 00:41:35;;;;;;;0.10;0.10;;;;;;;;;;5049897;28;20629;-73
2022/12/20 00:44:04;;;;;;;0.10;0.10;;;;;;;;;;5057407;28;20629;-74
2022/12/20 00:46:33;;;;;;;0.10;0.10;;;;;;;;;;5069274;28;20676;-73
2022/12/20 00:49:00;;;;;;;0.00;0.00;;;;;;;;;;5071298;28;20655;-74
2022/12/20 00:51:28;;;;;;;0.10;0.10;;;;;;;;;;5058931;28;20623;-73
2022/12/20 00:53:56;;;;;;;0.10;0.10;;;;;;;;;;5052473;28;20648;-73
2022/12/20 00:56:23;;;;;;;0.10;0.10;;;;;;;;;;5055758;28;20652;-73
2022/12/20 00:58:52;;;;;;;0.10;0.10;;;;;;;;;;5074155;28;20662;-74
2022/12/20 01:01:22;;;;;;;0.10;0.10;;;;;;;;;;5056465;28;20624;-73
2022/12/20 01:03:50;;;;;;;0.10;0.10;;;;;;;;;;5066216;28;20636;-73
2022/12/20 01:06:18;;;;;;;0.10;0.10;;;;;;;;;;5056478;28;20675;-73
2022/12/20 01:08:45;;;;;;;0.10;0.10;;;;;;;;;;5057962;28;20632;-73
2022/12/20 01:11:13;;;;;;;0.10;0.10;;;;;;;;;;5058385;28;20627;-73
2022/12/20 01:13:42;;;;;;;0.10;0.10;;;;;;;;;;5053299;28;20716;-73
2022/12/20 01:16:11;;;;;;;0.10;0.10;;;;;;;;;;5058217;28;20663;-73
2022/12/20 01:18:40;;;;;;;0.00;0.00;;;;;;;;;;5055261;28;20656;-73
2022/12/20 01:21:08;;;;;;;0.10;0.10;;;;;;;;;;5055394;28;20624;-73
2022/12/20 01:23:36;;;;;;;0.10;0.10;;;;;;;;;;5065119;28;20671;-73
2022/12/20 01:26:07;;;;;;;0.00;0.00;;;;;;;;;;5057216;28;20671;-73
2022/12/20 01:28:35;;;;;;;0.10;0.10;;;;;;;;;;5054549;28;20625;-73
2022/12/20 01:31:03;;;;;;;0.10;0.10;;;;;;;;;;5054183;28;20629;-73
2022/12/20 01:33:30;;;;;;;0.00;0.00;;;;;;;;;;5056814;28;20632;-73
2022/12/20 01:36:00;;;;;;;0.00;0.00;;;;;;;;;;5056212;28;20651;-73
2022/12/20 01:38:27;;;;;;;0.03;0.03;;;;;;;;;;5048862;28;20632;-74
2022/12/20 01:40:56;;;;;;;0.10;0.10;;;;;;;;;;5057609;28;20646;-73
2022/12/20 01:43:24;;;;;;;0.10;0.10;;;;;;;;;;5054197;28;20628;-74
2022/12/20 01:45:51;;;;;;;0.10;0.10;;;;;;;;;;5053284;28;20706;-73
2022/12/20 01:48:20;;;;;;;0.10;0.10;;;;;;;;;;5050411;28;20641;-74
2022/12/20 01:50:48;;;;;;;0.10;0.10;;;;;;;;;;5055343;28;20628;-73
2022/12/20 01:53:17;;;;;;;0.10;0.10;;;;;;;;;;5070703;28;20634;-73
2022/12/20 01:55:46;;;;;;;0.10;0.10;;;;;;;;;;5050944;28;20660;-73
2022/12/20 01:58:15;;;;;;;0.10;0.10;;;;;;;;;;5056368;28;20649;-73
2022/12/20 02:00:42;;;;;;;0.00;0.00;;;;;;;;;;5061536;28;20616;-73
2022/12/20 02:03:10;;;;;;;0.10;0.10;;;;;;;;;;5053137;28;20690;-73
2022/12/20 02:05:39;;;;;;;0.00;0.00;;;;;;;;;;5055362;28;20666;-73
2022/12/20 02:08:06;;;;;;;0.10;0.10;;;;;;;;;;5050534;28;20624;-73
2022/12/20 02:10:42;;;;;;;0.10;0.10;;;;;;;;;;5065956;28;20622;-73
2022/12/20 02:13:13;;;;;;;0.10;0.10;;;;;;;;;;5066261;28;20623;-73
2022/12/20 02:15:45;;;;;;;0.10;0.10;;;;;;;;;;5053269;28;20708;-73
2022/12/20 02:18:17;;;;;;;0.10;0.10;;;;;;;;;;5066310;28;20619;-73
2022/12/20 02:20:57;;;;;;;0.10;0.10;;;;;;;;;;5045839;28;20636;-73
2022/12/20 02:23:39;;;;;;;0.07;0.07;;;;;;;;;;5063900;28;20715;-73
2022/12/20 02:26:15;;;;;;;0.10;0.10;;;;;;;;;;5035576;28;20679;-73
2022/12/20 02:28:54;;;;;;;0.10;0.10;;;;;;;;;;5068500;28;20631;-73
2022/12/20 02:31:26;;;;;;;0.10;0.10;;;;;;;;;;5059464;28;20638;-73
2022/12/20 02:33:56;;;;;;;0.10;0.10;;;;;;;;;;5058766;28;20659;-73
2022/12/20 02:36:24;;;;;;;0.10;0.10;;;;;;;;;;5057690;28;20742;-73
2022/12/20 02:38:52;;;;;;;0.10;0.10;;;;;;;;;;5079456;28;20642;-73
2022/12/20 02:41:22;;;;;;;0.10;0.10;;;;;;;;;;5057088;28;20646;-73
2022/12/20 02:46:38;;;;;;;0.10;0.10;;;;;;;;;;5051381;28;20652;-73
2022/12/20 02:49:10;;;;;;;0.10;0.10;;;;;;;;;;5055801;28;20730;-73
2022/12/20 02:51:38;;;;;;;0.10;0.10;;;;;;;;;;5070442;28;20624;-73
2022/12/20 02:54:06;;;;;;;0.10;0.10;;;;;;;;;;5057104;28;20648;-73
2022/12/20 02:56:36;;;;;;;0.10;0.10;;;;;;;;;;5059572;28;20647;-73
2022/12/20 02:59:07;;;;;;;0.10;0.10;;;;;;;;;;5058313;28;20631;-73
2022/12/20 03:01:38;;;;;;;0.10;0.10;;;;;;;;;;5058175;28;20640;-73
2022/12/20 03:04:06;;;;;;;0.10;0.10;;;;;;;;;;5057730;28;20626;-73
2022/12/20 03:06:33;;;;;;;0.10;0.10;;;;;;;;;;5071619;28;20681;-73
2022/12/20 03:09:02;;;;;;;0.10;0.10;;;;;;;;;;5054798;28;20725;-73
2022/12/20 03:11:32;;;;;;;0.00;0.00;;;;;;;;;;5056898;28;20629;-73
2022/12/20 03:14:00;;;;;;;0.10;0.10;;;;;;;;;;5057759;28;20623;-73
2022/12/20 03:16:27;;;;;;;0.10;0.10;;;;;;;;;;5059545;28;20640;-73
2022/12/20 03:18:56;;;;;;;0.00;0.00;;;;;;;;;;5067506;28;20636;-73
2022/12/20 03:21:23;;;;;;;0.00;0.00;;;;;;;;;;5074699;28;20741;-73
2022/12/20 03:23:51;;;;;;;0.10;0.10;;;;;;;;;;5060102;28;20620;-73
2022/12/20 03:26:18;;;;;;;0.00;0.00;;;;;;;;;;5056879;28;20668;-73
2022/12/20 03:28:51;;;;;;;0.10;0.10;;;;;;;;;;5076731;28;20640;-73
2022/12/20 03:31:21;;;;;;;0.10;0.10;;;;;;;;;;5059063;28;20624;-73
2022/12/20 03:33:52;;;;;;;0.10;0.10;;;;;;;;;;5067591;28;20702;-73
2022/12/20 03:36:22;;;;;;;0.10;0.10;;;;;;;;;;5055387;28;20658;-73
2022/12/20 03:38:52;;;;;;;0.10;0.10;;;;;;;;;;5058108;28;20625;-73
2022/12/20 03:41:20;;;;;;;0.10;0.10;;;;;;;;;;5064054;28;20628;-73
2022/12/20 03:43:48;;;;;;;0.10;0.10;;;;;;;;;;5049100;28;20677;-73
2022/12/20 03:46:16;;;;;;;0.07;0.07;;;;;;;;;;5056194;28;20675;-73
2022/12/20 03:48:43;;;;;;;0.10;0.10;;;;;;;;;;5059363;28;20648;-73
2022/12/20 03:51:11;;;;;;;0.10;0.10;;;;;;;;;;5071289;28;20616;-73
2022/12/20 03:53:40;;;;;;;0.10;0.10;;;;;;;;;;5057028;28;20636;-73
2022/12/20 03:56:08;;;;;;;0.10;0.10;;;;;;;;;;5058382;28;20679;-73
2022/12/20 03:58:36;;;;;;;0.10;0.10;;;;;;;;;;5059981;28;20632;-73
2022/12/20 04:01:16;;;;;;;0.10;0.10;;;;;;;;;;5068369;28;20624;-73
2022/12/20 04:03:44;;;;;;;0.10;0.10;;;;;;;;;;5074045;28;20629;-73
2022/12/20 04:06:12;;;;;;;0.00;0.00;;;;;;;;;;5054254;28;20773;-73
2022/12/20 04:08:40;;;;;;;0.10;0.10;;;;;;;;;;5054780;28;20672;-73
2022/12/20 04:11:18;;;;;;;0.00;0.00;;;;;;;;;;5055837;28;20621;-73
2022/12/20 04:13:54;;;;;;;0.10;0.10;;;;;;;;;;5073292;28;20632;-73
2022/12/20 04:16:24;;;;;;;0.10;0.10;;;;;;;;;;5055828;28;20749;-73
2022/12/20 04:18:52;;;;;;;0.10;0.10;;;;;;;;;;5048546;28;20628;-73
2022/12/20 04:21:22;;;;;;;0.10;0.10;;;;;;;;;;5055391;28;20754;-73
2022/12/20 04:23:51;;;;;;;0.03;0.03;;;;;;;;;;5053429;28;20283;-73
2022/12/20 04:26:19;;;;;;;0.10;0.10;;;;;;;;;;5058589;28;20669;-73
2022/12/20 04:28:46;;;;;;;0.10;0.10;;;;;;;;;;5065430;28;20623;-73
2022/12/20 04:31:13;;;;;;;0.10;0.10;;;;;;;;;;5071019;28;20650;-73
2022/12/20 04:33:41;;;;;;;0.10;0.10;;;;;;;;;;5055554;28;20624;-73
2022/12/20 04:36:09;;;;;;;0.07;0.07;;;;;;;;;;5059758;28;20661;-73
2022/12/20 04:38:38;;;;;;;0.10;0.10;;;;;;;;;;5071273;28;20627;-73
2022/12/20 04:41:07;;;;;;;0.10;0.10;;;;;;;;;;5054612;28;20628;-73
2022/12/20 04:43:45;;;;;;;0.10;0.10;;;;;;;;;;5076227;28;20675;-73
2022/12/20 04:46:15;;;;;;;0.10;0.10;;;;;;;;;;5070615;28;20725;-73
2022/12/20 04:48:42;;;;;;;0.10;0.10;;;;;;;;;;5056580;28;20631;-73
2022/12/20 04:51:09;;;;;;;0.10;0.10;;;;;;;;;;5057030;28;20620;-74
2022/12/20 04:53:47;;;;;;;0.10;0.10;;;;;;;;;;5076098;28;20633;-73
2022/12/20 04:56:27;;;;;;;0.00;0.00;;;;;;;;;;5055985;28;20655;-73
2022/12/20 04:58:57;;;;;;;0.00;0.00;;;;;;;;;;5055320;28;20639;-73
2022/12/20 05:01:25;;;;;;;0.10;0.10;;;;;;;;;;5053733;28;20708;-73
2022/12/20 05:03:54;;;;;;;0.10;0.10;;;;;;;;;;5056193;28;20635;-73
2022/12/20 05:06:21;;;;;;;0.10;0.10;;;;;;;;;;5056206;28;20668;-73
2022/12/20 05:08:49;;;;;;;0.10;0.10;;;;;;;;;;5064446;28;20629;-73
2022/12/20 05:11:16;;;;;;;0.00;0.00;;;;;;;;;;5058668;28;20646;-73
2022/12/20 05:13:45;;;;;;;0.10;0.10;;;;;;;;;;5053968;28;20629;-73
2022/12/20 05:16:13;;;;;;;0.00;0.00;;;;;;;;;;5057428;28;20719;-73
2022/12/20 05:18:41;;;;;;;0.10;0.10;;;;;;;;;;5053442;28;20634;-72
2022/12/20 05:27:00;;;;;;;0.10;0.10;;;6.80;99.90;;;;;;5053635;28;20660;-76
2022/12/20 05:29:29;;;;;;;0.10;0.10;;;;;;;;;;5053000;28;20878;-76
2022/12/20 05:31:56;;;;;;;0.10;0.10;;;6.70;99.90;;;;;;5058932;28;20628;-73
2022/12/20 05:34:25;;;;;;;0.10;0.10;;;6.70;99.90;;;;;;5070931;28;20634;-77
2022/12/20 05:36:54;;;;;;;0.10;0.10;;;6.60;99.90;;;;;;5052123;28;20688;-76
2022/12/20 05:39:23;;;;;;;0.10;0.10;;;6.60;99.90;;;;;;5048019;28;20628;-77
2022/12/20 05:41:54;;;;;;;0.10;0.10;;;6.60;99.90;;;;;;5048699;28;20633;-76
2022/12/20 05:44:24;;;;;;;0.10;0.10;;;6.60;99.90;;;;;;5061447;28;20708;-76
2022/12/20 05:46:56;;;;;;;0.10;0.10;;;6.60;99.90;;;;;;5069012;28;20668;-76
2022/12/20 05:49:27;;;;;;;0.10;0.10;;;6.60;99.90;;;;;;5070391;28;20641;-73
2022/12/20 05:51:55;;;;;;;0.10;0.10;;;6.70;99.90;;;;;;5070551;28;20712;-72
2022/12/20 05:54:25;;;;;;;0.10;0.10;;;6.70;99.90;;;;;;5071626;28;20622;-74
2022/12/20 05:57:00;;;;;;;0.10;0.10;;;6.80;99.90;;;;;;5055694;28;20701;-75
2022/12/20 05:59:34;;;;;;;0.10;0.10;;;6.90;99.90;;;;;;5050877;28;20619;-72
2022/12/20 06:02:04;;;;;;;0.10;0.10;;;6.90;99.90;;;;;;5047239;28;20644;-74
2022/12/20 06:04:32;;;;;;;0.10;0.10;;;7.00;99.90;;;;;;5061893;28;20727;-74
2022/12/20 06:07:04;;;;;;;0.10;0.10;;;7.00;99.90;;;;;;5067477;28;20665;-72
2022/12/20 06:09:31;;;;;;;0.07;0.07;;;7.00;99.90;;;;;;5054386;28;20678;-71
2022/12/20 06:12:05;;;;;;;0.10;0.10;;;7.10;99.90;;;;;;5051853;28;20671;-71
2022/12/20 06:14:33;;;;;;;0.10;0.10;;;7.10;99.90;;;;;;5047408;28;20279;-70
2022/12/20 06:17:02;;;;;;;0.10;0.10;;;7.10;99.90;;;;;;5054651;28;20747;-71
2022/12/20 06:19:31;;;;;;;0.10;0.10;;;7.10;99.90;;;;;;5056403;28;20717;-71
2022/12/20 06:21:59;;;;;;;0.00;0.00;;;7.10;99.90;;;;;;5045681;28;20612;-71
2022/12/20 06:24:40;;;;;;;0.10;0.10;;;7.10;99.90;;;;;;5051345;28;20616;-69
2022/12/20 06:27:07;;;;;;;0.10;0.10;;;7.10;99.90;;;;;;5065383;28;20687;-69
2022/12/20 06:29:36;;;;;;;0.10;0.10;;;7.10;99.90;;;;;;5062967;28;20624;-69
2022/12/20 06:32:08;;;;;;;0.10;0.10;;;7.10;99.90;;;;;;5054726;28;20604;-69
2022/12/20 06:34:36;;;;;;;0.10;0.10;;;7.10;99.90;;;;;;5054342;28;20631;-69
2022/12/20 06:37:03;;;;;;;0.00;0.00;;;7.10;99.90;;;;;;5065603;28;20754;-69
2022/12/20 06:39:33;;;;;;;0.10;0.10;;;7.10;99.90;;;;;;5045402;28;20621;-69
2022/12/20 06:42:05;;;;;;;0.00;0.00;;;7.10;99.90;;;;;;5047790;28;20679;-69
2022/12/20 06:44:34;;;;;;;0.10;0.10;;;7.10;99.90;;;;;;5058924;28;20623;-69
2022/12/20 06:47:01;;;;;;;0.10;0.10;;;7.10;99.90;;;;;;5066640;28;20668;-69
2022/12/20 06:49:28;;;;;;;0.00;0.00;;;7.10;99.90;;;;;;5053644;28;20654;-70
2022/12/20 06:51:57;;;;;;;0.10;0.10;;;7.20;99.90;;;;;;5047328;28;20682;-69
2022/12/20 06:54:37;;;;;;;0.10;0.10;;;7.20;99.90;;;;;;5053653;28;20675;-69
2022/12/20 06:57:05;;;;;;;0.10;0.10;;;7.20;99.90;;;;;;5072598;28;20758;-69
2022/12/20 06:59:32;;;;;;;0.10;0.10;;;7.20;99.90;;;;;;5057061;28;20695;-69
2022/12/20 07:01:59;;;;;;;0.10;0.10;;;7.30;99.90;;;;;;5049178;28;20674;-69
2022/12/20 07:04:27;;;;;;;0.10;0.10;;;7.30;99.90;;;;;;5070317;28;20642;-69
2022/12/20 07:06:53;;;;;;;0.00;0.00;;;7.20;99.90;;;;;;5054303;28;20675;-69
2022/12/20 07:09:22;;;;;;;0.10;0.10;;;7.20;99.90;;;;;;5071237;28;20632;-69
2022/12/20 07:11:49;;;;;;;0.10;0.10;;;7.20;99.90;;;;;;5047372;28;20627;-69
2022/12/20 07:14:16;;;;;;;0.10;0.10;;;7.20;99.90;;;;;;5065728;28;20733;-69
2022/12/20 07:16:43;;;;;;;0.00;0.00;;;7.20;99.90;;;;;;5053777;28;20684;-69
2022/12/20 07:19:11;;;;;;;0.10;0.10;;;7.20;99.90;;;;;;5056904;28;20631;-70
2022/12/20 07:21:38;;;;;;;0.10;0.10;;;7.10;99.90;;;;;;5059331;28;20726;-70
2022/12/20 07:24:06;;;;;;;0.00;0.00;;;7.10;99.90;;;;;;5073151;28;20635;-69
2022/12/20 07:26:35;;;;;;;0.10;0.10;;;7.10;99.90;;;;;;5057441;28;20658;-70
2022/12/20 07:29:01;;;;;;;0.10;0.10;;;7.10;99.90;;;;;;5050787;28;20754;-69
2022/12/20 07:31:29;;;;;;;0.00;0.00;;;7.20;99.90;;;;;;5058358;28;20713;-73
2022/12/20 07:33:56;;;;;;;0.10;0.10;;;7.10;99.90;;;;;;5076105;28;20631;-71
2022/12/20 07:36:23;;;;;;;0.10;0.10;;;7.10;99.90;;;;;;5072997;28;20763;-71
2022/12/20 07:38:50;;;;;;;0.10;0.10;;;7.10;99.90;;;;;;5048712;28;20620;-71
2022/12/20 07:41:18;;;;;;;0.00;0.00;;;7.10;99.90;;;;;;5055701;28;20631;-71
2022/12/20 07:43:46;;;;;;;0.00;0.00;;;7.10;99.90;;;;;;5058225;28;20621;-71
2022/12/20 07:46:15;;;;;;;0.10;0.10;;;7.10;99.90;;;;;;5052829;28;20666;-71
2022/12/20 07:48:43;;;;;;;0.10;0.10;;;7.10;99.90;;;;;;5054598;28;20653;-71
2022/12/20 07:51:15;;;;;;;0.10;0.10;;;7.20;99.90;;;;;;5059951;28;20666;-72
2022/12/20 07:53:46;;;;;;;0.10;0.10;;;7.10;99.90;;;;;;5051981;28;20628;-72
2022/12/20 07:56:15;;;;;;;0.10;0.10;;;7.10;99.90;;;;;;5056101;28;20659;-72
2022/12/20 07:58:43;;;;;;;0.10;0.10;;;7.00;99.90;;;;;;5057928;28;20627;-72
2022/12/20 08:01:12;;;;;;;0.10;0.10;;;7.00;99.90;;;;;;5067023;28;20624;-72
2022/12/20 08:03:44;;;;;;;0.10;0.10;;;7.00;99.90;;;;;;5067147;28;20676;-72
2022/12/20 08:06:12;;;;;;;0.10;0.10;;;7.10;99.90;;;;;;5072786;28;20657;-72
2022/12/20 08:08:43;;;;;;;0.10;0.10;;;7.10;99.90;;;;;;5049756;28;20648;-72
2022/12/20 08:11:11;;;;;;;0.03;0.03;;;7.10;99.90;;;;;;5057398;28;20624;-72
2022/12/20 08:13:38;;;;;;;0.10;0.10;;;7.10;99.90;;;;;;5072517;28;20624;-72
2022/12/20 08:16:06;;;;;;;0.10;0.10;;;7.10;99.90;;;;;;5049783;28;20652;-72
2022/12/20 08:18:35;;;;;;;0.10;0.10;;;7.10;99.90;;;;;;5049183;28;20660;-72
2022/12/20 08:21:04;;;;;;;0.10;0.10;;;7.10;99.90;;;;;;5057135;28;20656;-72
2022/12/20 08:23:32;;;;;;;0.10;0.10;;;7.10;99.90;;;;;;5071808;28;20621;-72
2022/12/20 08:26:01;;;;;;;0.10;0.10;;;7.10;99.90;;;;;;5057297;28;20712;-72
2022/12/20 08:28:29;;;;;;;0.10;0.10;;;7.10;99.90;;;;;;5054186;28;20676;-72
2022/12/20 08:31:03;;;;;;;0.00;0.00;;;7.10;99.90;;;;;;5056505;28;20661;-72
2022/12/20 08:33:31;;;;;;;0.10;0.10;;;7.10;99.90;;;;;;5072652;28;20620;-72
2022/12/20 08:36:01;;;;;;;0.10;0.10;;;7.10;99.90;;;;;;5057085;28;20717;-71
2022/12/20 08:38:29;;;;;;;0.10;0.10;;;7.10;99.90;;;;;;5050180;28;20624;-71
2022/12/20 08:40:57;;;;;;;0.10;0.10;;;7.10;99.90;;;;;;5056273;28;20704;-70
2022/12/20 08:43:24;;;;;;;0.00;0.00;;;7.10;99.90;;;;;;5056281;28;20662;-71
2022/12/20 08:45:55;;;;;;;0.10;0.10;;;7.00;99.90;;;;;;5050149;28;20710;-71
2022/12/20 08:48:22;;;;;;;0.10;0.10;;;7.00;99.90;;;;;;5066809;28;20656;-70
2022/12/20 08:50:54;;;;;;;0.10;0.10;;;7.00;99.90;;;;;;5067340;28;20636;-71
2022/12/20 08:53:23;;;;;;;0.10;0.10;;;7.10;99.90;;;;;;5060436;28;20631;-71
2022/12/20 08:55:50;;;;;;;0.10;0.10;;;7.00;99.90;;;;;;5066920;28;20673;-72
2022/12/20 08:58:17;;;;;;;0.00;0.00;;;7.00;99.90;;;;;;5074880;28;20621;-71
2022/12/20 09:00:44;;;;;;;0.00;0.00;;;6.90;99.90;;;;;;5055968;28;20621;-70
2022/12/20 09:03:12;;;;;;;0.10;0.10;;;6.90;99.90;;;;;;5073580;28;20850;-70
2022/12/20 09:05:45;;;;;;;0.00;0.00;;;6.90;99.90;;;;;;5055751;28;20651;-69
2022/12/20 09:08:12;;;;;;;0.00;0.00;;;7.00;99.90;;;;;;5069405;28;20721;-70
2022/12/20 09:10:44;;;;;;;0.10;0.10;;;6.90;99.90;;;;;;5066026;28;20628;-69
2022/12/20 09:13:20;;;;;;;0.00;0.00;;;6.90;99.90;;;;;;5054340;28;20625;-68
2022/12/20 09:15:51;;;;;;;0.10;0.10;;;6.80;99.90;;;;;;5071952;28;20683;-70
2022/12/20 09:18:19;;;;;;;0.10;0.10;;;6.80;99.90;;;;;;5073737;28;20618;-70
2022/12/20 09:20:49;;;;;;;0.10;0.10;;;6.80;99.90;;;;;;5057170;28;20633;-70
2022/12/20 09:23:17;;;;;;;0.00;0.00;;;6.80;99.90;;;;;;5071987;28;20620;-70
2022/12/20 09:25:46;;;;;;;0.10;0.10;;;6.80;99.90;;;;;;5058168;28;20664;-71
2022/12/20 09:28:14;;;;;;;0.00;0.00;;;6.80;99.90;;;;;;5055910;28;20644;-71
2022/12/20 09:30:41;;;;;;;0.10;0.10;;;6.80;99.90;;;;;;5046987;28;20635;-71
2022/12/20 09:33:09;;;;;;;0.10;0.10;;;6.80;99.90;;;;;;5054894;28;20616;-71
2022/12/20 09:35:37;;;;;;;0.10;0.10;;;6.80;99.90;;;;;;5069345;28;20656;-71
2022/12/20 09:38:06;;;;;;;0.00;0.00;;;6.70;99.90;;;;;;5071034;28;20618;-71
2022/12/20 09:40:37;;;;;;;0.10;0.10;;;6.70;99.90;;;;;;5054174;28;20628;-71
2022/12/20 09:43:10;;;;;;;0.10;0.10;;;6.70;99.90;;;;;;5050381;28;20705;-71
2022/12/20 09:45:38;;;;;;;0.00;0.00;;;6.80;99.90;;;;;;5065482;28;20678;-71
2022/12/20 09:48:17;;;;;;;0.10;0.10;;;6.80;99.90;;;;;;5056198;28;20639;-71
2022/12/20 09:50:53;;;;;;;0.10;0.10;;;6.80;99.90;;;;;;5055920;28;20635;-71
2022/12/20 09:53:31;;;;;;;0.10;0.10;;;6.80;99.90;;;;;;5056709;28;20608;-70
2022/12/20 09:56:05;;;;;;;0.10;0.10;;;6.70;99.90;;;;;;5046877;28;20667;-70
2022/12/20 09:58:48;;;;;;;0.10;0.10;;;6.70;99.90;;;;;;5048872;28;20644;-70
2022/12/20 10:01:18;;;;;;;0.10;0.10;;;6.70;99.90;;;;;;5047182;28;20657;-71
2022/12/20 10:03:45;;;;;;;0.10;0.10;;;6.70;99.90;;;;;;5073843;28;20620;-70
2022/12/20 10:06:22;;;;;;;0.10;0.10;;;6.70;99.90;;;;;;5046816;28;20660;-71
2022/12/20 10:08:55;;;;;;;0.10;0.10;;;6.70;99.90;;;;;;5071283;28;20698;-70
2022/12/20 10:11:42;;;;;;;0.00;0.00;;;6.70;99.90;;;;;;5064257;28;20612;-70
2022/12/20 10:14:25;;;;;;;0.10;0.10;;;6.80;99.90;;;;;;5053180;28;20628;-70
2022/12/20 10:16:56;;;;;;;0.10;0.10;;;6.80;99.90;;;;;;5050794;28;20660;-71
2022/12/20 10:19:45;;;;;;;0.10;0.10;;;6.80;99.90;;;;;;5054272;28;20675;-70
2022/12/20 10:22:18;;;;;;;0.10;0.10;;;6.90;99.90;;;;;;5056131;28;20624;-70
2022/12/20 10:24:52;;;;;;;0.10;0.10;;;6.90;99.90;;;;;;5053365;28;20685;-71
2022/12/20 10:27:21;;;;;;;0.10;0.10;;;6.90;99.90;;;;;;5067398;28;20684;-71
2022/12/20 10:29:50;;;;;;;0.10;0.10;;;6.90;99.90;;;;;;5056064;28;20648;-70
2022/12/20 10:32:21;;;;;;;0.00;0.00;;;6.90;99.90;;;;;;5057512;28;20616;-71
2022/12/20 10:34:55;;;;;;;0.10;0.10;;;6.90;99.90;;;;;;5046745;28;20621;-70
2022/12/20 10:37:22;;;;;;;0.10;0.10;;;6.90;99.90;;;;;;5056190;28;20663;-70
2022/12/20 10:39:51;;;;;;;0.10;0.10;;;6.90;99.90;;;;;;5069751;28;20619;-71
2022/12/20 10:42:37;;;;;;;0.00;0.00;;;7.00;99.90;;;;;;5072024;28;20665;-71
2022/12/20 10:45:32;;;;;;;0.10;0.10;;;7.00;99.90;;;;;;5056826;28;20652;-70
2022/12/20 10:48:03;;;;;;;0.10;0.10;;;7.00;99.90;;;;;;5071332;28;20616;-70
2022/12/20 10:50:30;;;;;;;0.10;0.10;;;7.00;99.90;;;;;;5059199;28;20629;-70
2022/12/20 10:53:16;;;;;;;0.10;0.10;;;7.00;99.90;;;;;;5050797;28;20628;-70
2022/12/20 10:55:43;;;;;;;0.10;0.10;;;7.10;99.90;;;;;;5055694;28;20659;-70
2022/12/20 10:58:15;;;;;;;0.00;0.00;;;7.10;99.90;;;;;;5075512;28;20616;-70
2022/12/20 11:00:45;;;;;;;0.10;0.10;;;7.10;99.90;;;;;;5060155;28;20739;-71
2022/12/20 11:03:17;;;;;;;0.07;0.07;;;7.10;99.90;;;;;;5056133;28;20646;-71
2022/12/20 11:05:56;;;;;;;0.00;0.00;;;7.10;99.90;;;;;;5054953;28;20754;-71
2022/12/20 11:08:25;;;;;;;0.10;0.10;;;7.10;99.90;;;;;;5058719;28;20651;-71
2022/12/20 11:11:11;;;;;;;0.10;0.10;;;7.10;99.90;;;;;;5078662;28;20697;-72
2022/12/20 11:13:39;;;;;;;0.10;0.10;;;7.10;99.90;;;;;;5050728;28;20620;-70
2022/12/20 11:16:24;;;;;;;0.10;0.10;;;7.10;99.90;;;;;;5048965;28;20774;-70
2022/12/20 11:18:58;;;;;;;0.10;0.10;;;7.10;99.90;;;;;;5057617;28;20623;-71
2022/12/20 11:21:34;;;;;;;0.10;0.10;;;7.10;99.90;;;;;;5072941;28;20637;-71
2022/12/20 11:24:10;;;;;;;0.10;0.10;;;7.10;99.90;;;;;;5058193;28;20636;-71
2022/12/20 11:26:49;;;;;;;0.10;0.10;;;7.10;99.90;;;;;;5052941;28;20663;-70
2022/12/20 11:29:36;;;;;;;0.10;0.10;;;7.10;99.90;;;;;;5058415;28;20655;-70
2022/12/20 11:32:16;;;;;;;0.10;0.10;;;7.10;99.90;;;;;;5055048;28;20660;-71
2022/12/20 11:34:49;;;;;;;0.10;0.10;;;7.10;99.90;;;;;;5059366;28;20628;-71
2022/12/20 11:37:20;;;;;;;0.10;0.10;;;7.10;99.90;;;;;;5076170;28;20665;-71
2022/12/20 11:39:59;;;;;;;0.07;0.07;;;7.00;99.90;;;;;;5050747;28;20625;-71
2022/12/20 11:42:38;;;;;;;0.03;0.03;;;7.00;99.90;;;;;;5060781;28;20620;-71
2022/12/20 11:45:15;;;;;;;0.10;0.10;;;7.00;99.90;;;;;;5059320;28;20628;-71
2022/12/20 11:48:16;;;;;;;0.10;0.10;;;7.00;99.90;;;;;;5071539;28;20644;-71
2022/12/20 11:50:54;;;;;;;0.00;0.00;;;7.00;99.90;;;;;;5055446;28;20626;-71
2022/12/20 11:53:27;;;;;;;0.07;0.07;;;7.00;99.90;;;;;;5068045;28;20627;-71
2022/12/20 11:55:59;;;;;;;0.10;0.10;;;7.00;99.90;;;;;;5053023;28;20671;-71
2022/12/20 11:58:30;;;;;;;0.10;0.10;;;7.00;99.90;;;;;;5056945;28;20621;-71
2022/12/20 12:01:04;;;;;;;0.10;0.10;;;7.00;99.90;;;;;;5073649;28;20672;-71
2022/12/20 12:03:35;;;;;;;0.00;0.00;;;7.00;99.90;;;;;;5061475;28;20631;-71
2022/12/20 12:06:05;;;;;;;0.07;0.07;;;7.00;99.90;;;;;;5057310;28;20668;-71
2022/12/20 12:08:39;;;;;;;0.10;0.10;;;7.10;99.90;;;;;;5072587;28;20655;-71
2022/12/20 12:11:14;;;;;;;0.10;0.10;;;7.10;99.90;;;;;;5057363;28;20653;-71
2022/12/20 12:13:43;;;;;;;0.10;0.10;;;7.10;99.90;;;;;;5053707;28;20712;-71
2022/12/20 12:16:16;;;;;;;0.10;0.10;;;7.10;99.90;;;;;;5048216;28;20659;-71
2022/12/20 12:18:45;;;;;;;0.10;0.10;;;7.10;99.90;;;;;;5055417;28;20635;-71
2022/12/20 12:21:21;;;;;;;0.10;0.10;;;7.10;99.90;;;;;;5069616;28;20628;-71
2022/12/20 12:23:57;;;;;;;0.10;0.10;;;7.10;99.90;;;;;;5053184;28;20660;-70
2022/12/20 12:26:27;;;;;;;0.10;0.10;;;7.10;99.90;;;;;;5053173;28;20652;-70
2022/12/20 12:28:56;;;;;;;0.00;0.00;;;7.10;99.90;;;;;;5055928;28;20648;-72
2022/12/20 12:31:28;;;;;;;0.10;0.10;;;7.10;99.90;;;;;;5058090;28;20678;-71
2022/12/20 12:34:06;;;;;;;0.10;0.10;;;7.10;99.90;;;;;;5057106;28;20685;-72
2022/12/20 12:36:50;;;;;;;0.10;0.10;;;7.10;99.90;;;;;;5053939;28;20660;-70
2022/12/20 12:39:40;;;;;;;0.07;0.07;;;7.10;99.90;;;;;;5066638;28;20632;-72
2022/12/20 12:42:32;;;;;;;0.10;0.10;;;7.10;99.90;;;;;;5075228;28;20637;-70
2022/12/20 12:45:03;;;;;;;0.10;0.10;;;7.10;99.90;;;;;;5056961;28;20643;-71
2022/12/20 12:47:38;;;;;;;0.10;0.10;;;7.10;99.90;;;;;;5055935;28;20616;-71
2022/12/20 12:50:15;;;;;;;0.10;0.10;;;7.10;99.90;;;;;;5056176;28;20660;-72
2022/12/20 12:52:46;;;;;;;0.10;0.10;;;7.10;99.90;;;;;;5066527;28;20701;-71
2022/12/20 12:55:45;;;;;;;0.00;0.00;;;7.10;99.90;;;;;;5054943;28;20632;-71
2022/12/20 12:58:34;;;;;;;0.10;0.10;;;7.10;99.90;;;;;;5067026;28;20625;-71
2022/12/20 13:01:03;;;;;;;0.10;0.10;;;7.20;99.90;;;;;;5057983;28;20675;-71
2022/12/20 13:04:21;;;;;;;0.10;0.10;;;7.20;99.90;;;;;;5048470;28;20731;-71
2022/12/20 13:06:58;;;;;;;0.10;0.10;;;7.20;99.90;;;;;;5069565;28;20668;-70
2022/12/20 13:09:42;;;;;;;0.10;0.10;;;7.20;99.90;;;;;;5055233;28;20650;-70
2022/12/20 13:12:52;;;;;;;0.10;0.10;;;7.30;99.90;;;;;;5068968;28;20625;-70
2022/12/20 13:16:05;;;;;;;0.10;0.10;;;7.40;99.90;;;;;;5066762;28;20632;-70
2022/12/20 13:18:32;;;;;;;0.10;0.10;;;7.40;99.90;;;;;;5073254;28;20767;-71
2022/12/20 13:21:38;;;;;;;0.00;0.00;;;7.40;99.90;;;;;;5048394;28;20632;-71
2022/12/20 13:25:01;;;;;;;0.00;0.00;;;7.40;99.90;;;;;;5054908;28;20677;-71
2022/12/20 13:27:34;;;;;;;0.10;0.10;;;7.40;99.90;;;;;;5066143;28;20663;-70
2022/12/20 13:30:34;;;;;;;0.10;0.10;;;7.40;99.90;;;;;;5047450;28;20715;-70
2022/12/20 13:33:40;;;;;;;0.00;0.00;;;7.30;99.90;;;;;;5048149;28;20658;-71
2022/12/20 13:36:33;;;;;;;0.07;0.07;;;7.30;99.90;;;;;;5055189;28;20655;-71
2022/12/20 13:39:02;;;;;;;0.10;0.10;;;7.30;99.90;;;;;;5046739;28;20649;-70
2022/12/20 13:41:38;;;;;;;0.00;0.00;;;7.20;99.90;;;;;;5049943;28;20728;-69
2022/12/20 13:44:44;;;;;;;0.10;0.10;;;7.20;99.90;;;;;;5070362;28;20658;-71
2022/12/20 13:47:29;;;;;;;0.10;0.10;;;7.20;99.90;;;;;;5054722;28;20733;-71
2022/12/20 13:50:01;;;;;;;0.10;0.10;;;7.10;99.90;;;;;;5049641;28;20684;-71
2022/12/20 13:52:33;;;;;;;0.00;0.00;;;7.10;99.90;;;;;;5045868;28;20647;-71
2022/12/20 13:55:07;;;;;;;0.10;0.10;;;7.10;99.90;;;;;;5055298;28;20653;-72
2022/12/20 13:57:42;;;;;;;0.10;0.10;;;7.10;99.90;;;;;;5070026;28;20628;-71
2022/12/20 14:00:17;;;;;;;0.10;0.10;;;7.10;99.90;;;;;;5051898;28;20620;-72
2022/12/20 14:02:44;;;;;;;0.10;0.10;;;7.00;99.90;;;;;;5070919;28;20712;-72
2022/12/20 14:05:18;;;;;;;0.10;0.10;;;7.00;99.90;;;;;;5055761;28;20628;-72
2022/12/20 14:07:51;;;;;;;0.00;0.00;;;7.00;99.90;;;;;;5067271;28;20632;-71
2022/12/20 14:10:20;;;;;;;0.10;0.10;;;7.00;99.90;;;;;;5051458;28;20771;-71